Time;durP1;ratioP1;P1;durP2;ratioP2;P2;SDS_P1;SDS_P2;PMS_P1;PMS_P2;Temp;Humidity;BMP_temperature;BMP_pressure;BME280_temperature;BME280_humidity;BME280_pressure;Samples;Min_cycle;Max_cycle;Signal;HPM_P1;HPM_P2
2023/03/12 00:00:41;;;;;;;2.63;1.37;;;8.90;69.50;;;;;;6063048;23;20229;-75
2023/03/12 00:03:09;;;;;;;2.60;1.10;;;8.90;69.70;;;;;;6063104;23;20636;-75
2023/03/12 00:05:40;;;;;;;5.33;1.30;;;8.90;69.80;;;;;;6064148;23;20253;-75
2023/03/12 00:08:09;;;;;;;1.83;1.00;;;8.90;69.80;;;;;;6063636;23;20169;-75
2023/03/12 00:10:40;;;;;;;2.77;1.20;;;8.80;70.10;;;;;;6063726;23;20233;-75
2023/03/12 00:13:08;;;;;;;2.03;1.20;;;8.70;70.30;;;;;;6063311;23;20166;-75
2023/03/12 00:15:37;;;;;;;7.27;1.27;;;8.60;70.40;;;;;;6066015;23;20258;-74
2023/03/12 00:18:06;;;;;;;4.60;1.20;;;8.70;70.50;;;;;;6060466;23;20564;-75
2023/03/12 00:20:34;;;;;;;2.40;1.37;;;8.70;70.60;;;;;;6064102;23;20175;-74
2023/03/12 00:23:04;;;;;;;3.97;1.43;;;8.70;70.70;;;;;;6064448;23;20648;-74
2023/03/12 00:25:32;;;;;;;5.40;1.40;;;8.70;71.00;;;;;;6061614;23;20199;-74
2023/03/12 00:28:01;;;;;;;3.57;1.70;;;8.70;70.90;;;;;;6063307;23;20551;-75
2023/03/12 00:30:29;;;;;;;4.20;1.23;;;8.60;71.00;;;;;;6066858;23;20239;-76
2023/03/12 00:32:57;;;;;;;2.67;1.10;;;8.70;71.20;;;;;;6064576;23;20174;-75
2023/03/12 00:35:26;;;;;;;4.97;1.73;;;8.60;71.40;;;;;;6064915;23;20174;-75
2023/03/12 00:37:54;;;;;;;2.57;1.40;;;8.50;71.60;;;;;;6065057;23;20635;-74
2023/03/12 00:40:24;;;;;;;2.53;1.10;;;8.50;71.90;;;;;;6064751;23;20237;-74
2023/03/12 00:42:52;;;;;;;3.07;1.00;;;8.50;72.00;;;;;;6065703;23;20190;-74
2023/03/12 00:45:20;;;;;;;2.97;1.37;;;8.50;72.20;;;;;;6065813;23;20197;-74
2023/03/12 00:47:49;;;;;;;7.80;2.07;;;8.40;72.40;;;;;;6063673;23;20169;-74
2023/03/12 00:50:18;;;;;;;3.77;1.40;;;8.40;72.60;;;;;;6060367;23;20739;-74
2023/03/12 00:52:46;;;;;;;3.53;1.27;;;8.50;72.50;;;;;;6058723;23;20181;-75
2023/03/12 00:55:14;;;;;;;5.57;1.50;;;8.40;72.80;;;;;;6061027;23;20691;-74
2023/03/12 00:57:44;;;;;;;1.83;1.10;;;8.50;72.90;;;;;;6064534;23;20202;-75
2023/03/12 01:00:13;;;;;;;5.83;1.33;;;8.50;73.20;;;;;;6063218;23;20226;-75
2023/03/12 01:02:42;;;;;;;4.73;1.20;;;8.40;73.90;;;;;;6063195;23;20217;-75
2023/03/12 01:05:12;;;;;;;6.27;1.40;;;8.40;73.90;;;;;;6062181;23;20253;-74
2023/03/12 01:07:41;;;;;;;2.87;1.33;;;8.30;74.50;;;;;;6064299;23;20166;-76
2023/03/12 01:10:12;;;;;;;4.00;1.60;;;8.30;74.80;;;;;;6066038;23;20260;-74
2023/03/12 01:12:40;;;;;;;3.50;1.63;;;8.20;75.00;;;;;;6064700;23;20175;-74
2023/03/12 01:15:13;;;;;;;5.73;1.73;;;8.30;76.20;;;;;;6061859;23;20175;-73
2023/03/12 01:17:41;;;;;;;10.47;1.70;;;8.20;75.70;;;;;;6063522;23;20280;-75
2023/03/12 01:20:10;;;;;;;5.83;1.87;;;8.20;76.10;;;;;;6062868;23;20178;-75
2023/03/12 01:22:39;;;;;;;4.97;2.20;;;8.20;76.50;;;;;;6063480;23;20182;-76
2023/03/12 01:25:09;;;;;;;3.63;1.90;;;8.10;76.80;;;;;;6062522;23;20281;-74
2023/03/12 01:27:37;;;;;;;11.27;2.30;;;8.00;77.20;;;;;;6062947;23;20698;-74
2023/03/12 01:30:06;;;;;;;13.50;2.80;;;8.00;77.20;;;;;;6062826;23;20174;-74
2023/03/12 01:32:36;;;;;;;4.53;1.80;;;8.00;77.70;;;;;;6063582;23;20237;-75
2023/03/12 01:35:06;;;;;;;4.20;2.13;;;8.00;77.80;;;;;;6061110;23;20506;-75
2023/03/12 01:37:34;;;;;;;8.43;2.70;;;7.90;78.10;;;;;;6062950;23;20237;-74
2023/03/12 01:40:03;;;;;;;5.37;2.47;;;7.90;78.40;;;;;;6062002;23;20479;-74
2023/03/12 01:42:31;;;;;;;6.60;1.97;;;7.90;78.10;;;;;;6064639;23;20231;-74
2023/03/12 01:45:03;;;;;;;4.90;2.47;;;7.90;78.40;;;;;;6063550;23;20229;-73
2023/03/12 01:47:31;;;;;;;7.10;1.90;;;7.80;78.70;;;;;;6056238;23;20196;-74
2023/03/12 01:50:02;;;;;;;5.17;2.40;;;7.90;78.80;;;;;;6064667;23;20239;-75
2023/03/12 01:52:33;;;;;;;6.43;2.30;;;7.80;78.90;;;;;;6063339;23;20177;-74
2023/03/12 01:55:05;;;;;;;7.87;2.60;;;7.80;79.10;;;;;;6063872;23;20407;-74
2023/03/12 01:57:37;;;;;;;3.73;2.30;;;7.70;79.30;;;;;;6061917;23;20197;-77
2023/03/12 02:00:10;;;;;;;5.20;2.93;;;7.70;79.50;;;;;;6062840;23;20170;-75
2023/03/12 02:02:40;;;;;;;4.33;2.57;;;7.70;79.60;;;;;;6064319;23;20217;-74
2023/03/12 02:05:15;;;;;;;5.23;3.10;;;7.70;79.70;;;;;;6061820;23;20250;-75
2023/03/12 02:07:44;;;;;;;4.47;2.80;;;7.70;79.70;;;;;;6061485;23;20166;-74
2023/03/12 02:10:13;;;;;;;12.37;2.83;;;7.70;79.80;;;;;;6064228;23;20557;-74
2023/03/12 02:12:41;;;;;;;8.73;2.83;;;7.70;79.50;;;;;;6063910;23;20185;-74
2023/03/12 02:15:10;;;;;;;6.73;3.00;;;7.70;79.90;;;;;;6059678;23;20234;-74
2023/03/12 02:17:39;;;;;;;10.03;3.53;;;7.70;79.70;;;;;;6061265;23;20679;-76
2023/03/12 02:20:17;;;;;;;5.70;2.93;;;7.70;79.90;;;;;;6062576;23;20178;-74
2023/03/12 02:22:51;;;;;;;8.90;3.33;;;7.70;79.90;;;;;;6063944;23;20228;-74
2023/03/12 02:25:30;;;;;;;5.30;2.80;;;7.70;80.00;;;;;;6060840;23;20196;-74
2023/03/12 02:28:00;;;;;;;5.20;3.40;;;7.70;80.00;;;;;;6061788;23;20169;-74
2023/03/12 02:30:30;;;;;;;6.73;3.60;;;7.70;80.00;;;;;;6063913;23;20840;-76
2023/03/12 02:33:01;;;;;;;10.60;3.37;;;7.70;79.90;;;;;;6063311;23;20166;-74
2023/03/12 02:35:29;;;;;;;7.83;3.23;;;7.70;80.00;;;;;;6061379;23;20675;-75
2023/03/12 02:37:58;;;;;;;8.83;3.00;;;7.70;79.80;;;;;;6061384;23;20205;-74
2023/03/12 02:40:35;;;;;;;7.17;3.30;;;7.70;79.90;;;;;;6062561;23;20193;-74
2023/03/12 02:43:07;;;;;;;10.67;3.47;;;7.70;79.80;;;;;;6064995;23;20193;-74
2023/03/12 02:45:36;;;;;;;7.03;3.60;;;7.70;79.90;;;;;;6062938;23;20252;-74
2023/03/12 02:48:08;;;;;;;5.83;2.93;;;7.70;79.70;;;;;;6059996;23;20567;-75
2023/03/12 02:50:37;;;;;;;5.23;3.23;;;7.70;79.90;;;;;;6064739;23;20170;-74
2023/03/12 02:53:05;;;;;;;6.53;2.70;;;7.70;79.60;;;;;;6061110;23;20550;-74
2023/03/12 02:55:35;;;;;;;5.07;3.10;;;7.70;79.40;;;;;;6062474;23;20253;-74
2023/03/12 02:58:03;;;;;;;6.93;2.97;;;7.70;79.30;;;;;;6058766;23;20491;-74
2023/03/12 03:00:31;;;;;;;6.63;3.40;;;7.70;79.10;;;;;;6063886;23;20185;-76
2023/03/12 03:03:00;;;;;;;4.30;2.70;;;7.80;78.90;;;;;;6064121;23;20233;-75
2023/03/12 03:05:28;;;;;;;5.60;2.97;;;7.80;78.70;;;;;;6063317;23;20547;-74
2023/03/12 03:07:57;;;;;;;5.87;3.10;;;7.70;78.50;;;;;;6062400;23;20233;-74
2023/03/12 03:10:25;;;;;;;6.03;2.43;;;7.80;78.40;;;;;;6062145;23;20240;-75
2023/03/12 03:12:56;;;;;;;6.57;2.80;;;7.90;78.30;;;;;;6064101;23;20220;-74
2023/03/12 03:15:25;;;;;;;8.87;2.90;;;7.80;78.10;;;;;;6063806;23;20169;-74
2023/03/12 03:17:53;;;;;;;15.17;3.97;;;7.80;78.10;;;;;;6060925;23;20174;-74
2023/03/12 03:20:23;;;;;;;5.73;2.83;;;7.80;77.90;;;;;;6061609;23;20177;-75
2023/03/12 03:22:52;;;;;;;5.60;3.17;;;7.80;77.90;;;;;;6060861;23;20392;-74
2023/03/12 03:25:22;;;;;;;5.93;2.67;;;7.80;78.00;;;;;;6062417;23;20181;-75
2023/03/12 03:27:50;;;;;;;8.67;2.90;;;7.90;77.90;;;;;;6064159;23;20502;-73
2023/03/12 03:30:21;;;;;;;8.00;2.70;;;7.80;77.70;;;;;;6062825;23;20229;-74
2023/03/12 03:32:49;;;;;;;5.37;2.83;;;7.90;77.60;;;;;;6064873;23;20663;-76
2023/03/12 03:35:18;;;;;;;5.77;2.67;;;7.90;77.40;;;;;;6063125;23;20252;-74
2023/03/12 03:37:46;;;;;;;7.53;2.93;;;7.90;77.30;;;;;;6063113;23;20233;-74
2023/03/12 03:40:15;;;;;;;8.20;2.43;;;7.90;77.10;;;;;;6064472;23;20173;-74
2023/03/12 03:42:43;;;;;;;6.00;2.43;;;7.90;77.00;;;;;;6065316;23;20179;-74
2023/03/12 03:45:11;;;;;;;6.73;2.93;;;7.90;76.90;;;;;;6063656;23;20178;-74
2023/03/12 03:47:41;;;;;;;9.00;2.67;;;7.90;76.90;;;;;;6063750;23;20719;-74
2023/03/12 03:50:11;;;;;;;8.30;2.27;;;7.90;76.70;;;;;;6066212;23;20232;-73
2023/03/12 03:52:39;;;;;;;4.50;2.37;;;8.00;76.80;;;;;;6067722;23;20629;-73
2023/03/12 03:55:08;;;;;;;4.50;2.50;;;8.00;76.50;;;;;;6060150;23;20503;-73
2023/03/12 03:57:37;;;;;;;5.77;2.97;;;8.00;76.40;;;;;;6060355;23;20205;-73
2023/03/12 04:00:08;;;;;;;7.43;2.70;;;8.00;76.30;;;;;;6062126;23;20304;-73
2023/03/12 04:02:37;;;;;;;6.20;2.97;;;8.00;76.20;;;;;;6064855;23;20236;-73
2023/03/12 04:05:07;;;;;;;10.70;3.07;;;8.10;76.20;;;;;;6064426;23;20216;-74
2023/03/12 04:07:36;;;;;;;7.10;2.30;;;8.10;76.10;;;;;;6064819;23;20572;-74
2023/03/12 04:10:05;;;;;;;6.20;2.83;;;8.10;76.00;;;;;;6062735;23;20179;-73
2023/03/12 04:12:33;;;;;;;5.10;2.80;;;8.10;75.90;;;;;;6064802;23;20632;-73
2023/03/12 04:15:01;;;;;;;9.03;2.53;;;8.10;75.90;;;;;;6066483;23;20182;-73
2023/03/12 04:17:30;;;;;;;3.70;2.17;;;8.10;75.80;;;;;;6063500;23;20174;-73
2023/03/12 04:19:58;;;;;;;5.27;2.70;;;8.10;75.60;;;;;;6062570;23;20320;-73
2023/03/12 04:22:28;;;;;;;6.27;2.30;;;8.10;75.50;;;;;;6063363;23;20182;-73
2023/03/12 04:24:56;;;;;;;6.40;2.70;;;8.10;76.20;;;;;;6062226;23;20758;-73
2023/03/12 04:27:24;;;;;;;7.90;2.40;;;8.10;75.30;;;;;;6063973;23;20280;-73
2023/03/12 04:29:52;;;;;;;9.37;2.43;;;8.10;76.10;;;;;;6062652;23;21008;-73
2023/03/12 04:32:21;;;;;;;8.97;2.90;;;8.10;75.20;;;;;;6064250;23;20228;-73
2023/03/12 04:34:49;;;;;;;9.90;2.60;;;8.10;75.20;;;;;;6062918;23;20484;-73
2023/03/12 04:37:18;;;;;;;8.23;2.50;;;8.10;75.20;;;;;;6062768;23;20242;-73
2023/03/12 04:39:47;;;;;;;4.97;3.13;;;8.10;75.20;;;;;;6060733;23;20184;-73
2023/03/12 04:42:16;;;;;;;9.83;2.93;;;8.00;75.20;;;;;;6040592;23;20551;-74
2023/03/12 04:44:44;;;;;;;10.60;2.63;;;8.00;75.30;;;;;;6065948;23;20181;-73
2023/03/12 04:47:12;;;;;;;5.13;3.10;;;7.90;75.40;;;;;;6063776;23;20202;-73
2023/03/12 04:49:41;;;;;;;9.90;2.87;;;7.90;75.50;;;;;;6064966;23;20177;-73
2023/03/12 04:52:09;;;;;;;3.83;2.23;;;7.80;75.60;;;;;;6065359;23;20177;-73
2023/03/12 04:54:37;;;;;;;6.83;2.53;;;7.80;75.80;;;;;;6065954;23;20176;-74
2023/03/12 04:57:07;;;;;;;10.73;3.40;;;7.80;75.90;;;;;;6060910;23;20205;-74
2023/03/12 04:59:35;;;;;;;5.33;2.97;;;7.70;76.10;;;;;;6062017;23;20236;-73
2023/03/12 05:02:04;;;;;;;4.83;2.57;;;7.70;76.20;;;;;;6063369;23;20216;-73
2023/03/12 05:04:32;;;;;;;4.70;3.03;;;7.70;76.30;;;;;;6065577;23;20631;-73
2023/03/12 05:07:00;;;;;;;4.60;2.27;;;7.70;76.40;;;;;;6063914;23;20724;-73
2023/03/12 05:09:29;;;;;;;5.53;2.37;;;7.70;76.40;;;;;;6063125;23;20178;-73
2023/03/12 05:11:57;;;;;;;6.73;2.60;;;7.70;76.50;;;;;;6065219;23;20177;-73
2023/03/12 05:14:27;;;;;;;6.40;2.60;;;7.80;76.40;;;;;;6064463;23;20173;-73
2023/03/12 05:16:55;;;;;;;9.63;2.83;;;7.80;76.40;;;;;;6064291;23;20250;-74
2023/03/12 05:19:24;;;;;;;6.47;2.67;;;7.80;76.30;;;;;;6062574;23;20188;-74
2023/03/12 05:21:52;;;;;;;4.70;2.83;;;7.80;76.30;;;;;;6063368;23;20236;-73
2023/03/12 05:24:21;;;;;;;5.97;2.60;;;7.80;76.20;;;;;;6064927;23;20209;-74
2023/03/12 05:26:49;;;;;;;4.30;2.37;;;7.80;76.30;;;;;;6061348;23;20523;-74
2023/03/12 05:29:18;;;;;;;12.73;2.47;;;7.80;76.20;;;;;;6060945;23;20175;-74
2023/03/12 05:31:48;;;;;;;6.67;2.70;;;7.80;76.20;;;;;;6064018;23;20171;-74
2023/03/12 05:34:17;;;;;;;4.73;2.63;;;7.80;76.20;;;;;;6065988;23;20802;-74
2023/03/12 05:36:46;;;;;;;5.13;2.67;;;7.90;76.30;;;;;;6063543;23;20627;-73
2023/03/12 05:39:14;;;;;;;8.37;2.53;;;7.90;76.30;;;;;;6065141;23;20178;-74
2023/03/12 05:41:42;;;;;;;3.80;2.00;;;7.90;76.20;;;;;;6061414;23;20246;-74
2023/03/12 05:44:12;;;;;;;5.63;2.70;;;7.90;76.20;;;;;;6064614;23;20544;-74
2023/03/12 05:46:40;;;;;;;5.47;2.40;;;8.00;76.20;;;;;;6062304;23;20176;-74
2023/03/12 05:49:10;;;;;;;5.47;2.40;;;8.00;76.10;;;;;;6063625;23;20178;-74
2023/03/12 05:51:38;;;;;;;6.57;2.10;;;8.00;76.10;;;;;;6062296;23;20174;-74
2023/03/12 05:54:07;;;;;;;6.00;2.77;;;8.10;76.10;;;;;;6059678;23;20183;-74
2023/03/12 05:56:37;;;;;;;4.77;2.40;;;8.10;75.90;;;;;;6061243;23;20206;-73
2023/03/12 05:59:06;;;;;;;3.73;1.90;;;8.10;75.80;;;;;;6061608;23;20209;-73
2023/03/12 06:01:34;;;;;;;15.03;3.13;;;8.10;75.70;;;;;;6064646;23;20549;-73
2023/03/12 06:04:02;;;;;;;4.60;2.30;;;8.20;75.70;;;;;;6065436;23;20174;-73
2023/03/12 06:06:37;;;;;;;5.43;2.33;;;8.20;75.40;;;;;;6063267;23;20639;-74
2023/03/12 06:09:06;;;;;;;7.50;2.57;;;8.20;75.50;;;;;;6059143;23;20459;-73
2023/03/12 06:11:34;;;;;;;7.27;2.83;;;8.30;75.50;;;;;;6065410;23;20182;-73
2023/03/12 06:14:03;;;;;;;4.57;2.47;;;8.30;75.40;;;;;;6065363;23;20172;-73
2023/03/12 06:16:31;;;;;;;7.73;2.50;;;8.40;75.40;;;;;;6065873;23;20213;-73
2023/03/12 06:19:03;;;;;;;9.80;2.67;;;8.50;75.40;;;;;;6063714;23;20170;-73
2023/03/12 06:21:34;;;;;;;3.63;2.23;;;8.60;76.20;;;;;;6064598;23;20166;-73
2023/03/12 06:24:03;;;;;;;6.17;2.47;;;8.60;75.10;;;;;;6065699;23;20214;-73
2023/03/12 06:26:31;;;;;;;10.63;2.90;;;8.60;75.10;;;;;;6066124;23;20174;-73
2023/03/12 06:29:01;;;;;;;4.40;2.27;;;8.70;75.00;;;;;;6062540;23;20738;-73
2023/03/12 06:31:29;;;;;;;6.87;2.90;;;8.70;74.50;;;;;;6064733;23;20205;-73
2023/03/12 06:33:58;;;;;;;6.87;2.80;;;8.80;74.60;;;;;;6064143;23;20170;-73
2023/03/12 06:36:26;;;;;;;8.47;2.40;;;8.90;74.60;;;;;;6065614;23;20250;-72
2023/03/12 06:38:56;;;;;;;4.10;2.13;;;8.90;74.60;;;;;;6063109;23;20202;-76
2023/03/12 06:41:24;;;;;;;9.63;2.47;;;9.00;74.70;;;;;;6060720;23;20179;-73
2023/03/12 06:43:53;;;;;;;4.03;2.23;;;9.00;74.50;;;;;;6063125;23;20621;-75
2023/03/12 06:46:23;;;;;;;3.73;2.30;;;9.10;74.60;;;;;;6064295;23;20719;-73
2023/03/12 06:48:52;;;;;;;6.23;2.40;;;9.20;74.30;;;;;;6064266;23;20571;-74
2023/03/12 06:51:21;;;;;;;4.07;2.27;;;9.30;74.20;;;;;;6063139;23;20173;-74
2023/03/12 06:53:49;;;;;;;6.57;2.40;;;9.30;73.90;;;;;;6065108;23;20171;-73
2023/03/12 06:56:19;;;;;;;6.03;2.70;;;9.40;73.10;;;;;;6062433;23;20257;-74
2023/03/12 06:58:47;;;;;;;11.50;3.13;;;9.50;73.40;;;;;;6062408;23;20499;-73
2023/03/12 07:01:16;;;;;;;6.60;2.93;;;9.70;73.30;;;;;;6064965;23;20175;-73
2023/03/12 07:03:44;;;;;;;8.50;3.10;;;9.80;73.30;;;;;;6065265;23;20178;-74
2023/03/12 07:06:14;;;;;;;4.83;2.57;;;9.80;72.40;;;;;;6064096;23;20174;-74
2023/03/12 07:08:43;;;;;;;8.30;2.67;;;10.00;72.60;;;;;;6063664;23;20252;-75
2023/03/12 07:11:12;;;;;;;8.90;2.93;;;10.10;72.70;;;;;;6061684;23;20233;-73
2023/03/12 07:13:42;;;;;;;5.67;2.80;;;10.20;72.40;;;;;;6064569;23;20175;-74
2023/03/12 07:16:11;;;;;;;4.17;2.67;;;10.40;72.30;;;;;;6063009;23;20174;-73
2023/03/12 07:18:39;;;;;;;5.20;2.80;;;10.40;72.20;;;;;;6064835;23;20476;-73
2023/03/12 07:21:07;;;;;;;5.27;2.73;;;10.60;71.30;;;;;;6062318;23;20178;-73
2023/03/12 07:23:36;;;;;;;5.60;2.93;;;10.70;70.80;;;;;;6064952;23;20174;-74
2023/03/12 07:26:05;;;;;;;8.20;2.80;;;10.80;70.30;;;;;;6065595;23;20226;-73
2023/03/12 07:28:33;;;;;;;5.67;3.30;;;10.90;69.90;;;;;;6065650;23;20198;-73
2023/03/12 07:31:04;;;;;;;8.87;2.83;;;11.00;70.00;;;;;;6065900;23;20190;-73
2023/03/12 07:33:33;;;;;;;5.97;2.83;;;11.10;70.00;;;;;;6064383;23;20174;-74
2023/03/12 07:36:01;;;;;;;4.40;2.53;;;11.20;69.80;;;;;;6064874;23;20194;-74
2023/03/12 07:38:30;;;;;;;8.50;2.23;;;11.30;68.70;;;;;;6063878;23;20174;-73
2023/03/12 07:40:59;;;;;;;3.77;1.97;;;11.40;68.80;;;;;;6064137;23;20171;-73
2023/03/12 07:43:27;;;;;;;2.40;1.50;;;11.50;67.60;;;;;;6066073;23;20249;-72
2023/03/12 07:45:56;;;;;;;4.93;1.70;;;11.50;66.60;;;;;;6066509;23;20175;-73
2023/03/12 07:48:26;;;;;;;2.93;1.50;;;11.70;66.70;;;;;;6066528;23;20195;-74
2023/03/12 07:50:54;;;;;;;3.67;1.97;;;11.80;65.00;;;;;;6065409;23;20252;-73
2023/03/12 07:53:22;;;;;;;3.07;1.40;;;11.90;65.20;;;;;;6064935;23;20182;-73
2023/03/12 07:55:51;;;;;;;2.30;1.33;;;12.00;65.80;;;;;;6061897;23;20174;-74
2023/03/12 07:58:19;;;;;;;5.77;1.77;;;12.20;63.30;;;;;;6062542;23;20205;-73
2023/03/12 08:00:48;;;;;;;6.77;1.67;;;12.20;62.50;;;;;;6064795;23;20179;-73
2023/03/12 08:03:16;;;;;;;2.80;1.57;;;12.30;61.10;;;;;;6068468;23;20182;-73
2023/03/12 08:05:56;;;;;;;3.20;1.80;;;12.40;61.30;;;;;;6065610;23;20699;-73
2023/03/12 08:08:25;;;;;;;3.80;1.83;;;12.50;61.80;;;;;;6066174;23;20194;-73
2023/03/12 08:10:54;;;;;;;3.93;1.73;;;12.50;61.20;;;;;;6067093;23;20612;-73
2023/03/12 08:13:23;;;;;;;3.50;1.90;;;12.50;61.20;;;;;;6067481;23;20648;-73
2023/03/12 08:15:52;;;;;;;5.40;1.67;;;12.60;61.20;;;;;;6065455;23;20636;-73
2023/03/12 08:18:22;;;;;;;6.27;1.90;;;12.60;60.80;;;;;;6064407;23;20182;-73
2023/03/12 08:20:52;;;;;;;5.90;2.67;;;12.70;61.30;;;;;;6065841;23;20482;-72
2023/03/12 08:23:22;;;;;;;6.03;2.30;;;12.70;61.80;;;;;;6065999;23;20170;-72
2023/03/12 08:25:50;;;;;;;7.10;2.13;;;12.70;61.40;;;;;;6064949;23;20540;-74
2023/03/12 08:28:21;;;;;;;6.80;2.27;;;12.80;61.70;;;;;;6064111;23;20174;-73
2023/03/12 08:30:51;;;;;;;6.17;2.50;;;12.80;61.30;;;;;;6066237;23;20170;-73
2023/03/12 08:33:20;;;;;;;4.57;2.60;;;12.80;61.80;;;;;;6066946;23;20159;-73
2023/03/12 08:35:51;;;;;;;6.63;2.33;;;12.80;60.60;;;;;;6065142;23;20563;-72
2023/03/12 08:38:20;;;;;;;6.37;2.70;;;12.80;60.80;;;;;;6062005;23;20167;-73
2023/03/12 08:40:55;;;;;;;4.63;2.60;;;12.90;60.20;;;;;;6063068;23;20179;-73
2023/03/12 08:43:23;;;;;;;5.67;2.47;;;12.90;60.10;;;;;;6064088;23;20158;-74
2023/03/12 08:45:54;;;;;;;15.20;6.03;;;12.90;60.40;;;;;;6062014;23;20222;-73
2023/03/12 08:48:23;;;;;;;4.17;2.33;;;12.90;59.80;;;;;;6059933;23;20265;-74
2023/03/12 08:50:55;;;;;;;6.60;2.33;;;13.00;60.60;;;;;;6063915;23;20175;-73
2023/03/12 08:53:24;;;;;;;8.07;2.53;;;13.00;60.20;;;;;;6064166;23;20592;-73
2023/03/12 08:55:53;;;;;;;6.40;2.53;;;13.00;60.30;;;;;;6065548;23;20548;-73
2023/03/12 08:58:22;;;;;;;5.83;2.47;;;13.10;60.40;;;;;;6058747;23;20221;-73
2023/03/12 09:00:50;;;;;;;6.03;2.73;;;13.00;60.40;;;;;;6063266;23;20648;-73
2023/03/12 09:03:20;;;;;;;6.30;2.40;;;13.00;59.90;;;;;;6064160;23;20179;-73
2023/03/12 09:05:49;;;;;;;7.97;2.37;;;13.00;59.90;;;;;;6064297;23;20233;-73
2023/03/12 09:08:19;;;;;;;6.37;2.40;;;13.00;60.00;;;;;;6065267;23;20179;-72
2023/03/12 09:10:49;;;;;;;4.80;3.10;;;13.00;59.70;;;;;;6062397;23;20596;-72
2023/03/12 09:13:18;;;;;;;5.27;2.27;;;13.00;59.50;;;;;;6065165;23;20620;-73
2023/03/12 09:15:46;;;;;;;3.60;2.13;;;13.00;59.10;;;;;;6063982;23;20235;-73
2023/03/12 09:18:15;;;;;;;4.30;2.30;;;13.00;59.20;;;;;;6064028;23;20186;-72
2023/03/12 09:20:43;;;;;;;5.00;2.20;;;13.00;59.30;;;;;;6064421;23;20700;-73
2023/03/12 09:23:12;;;;;;;6.10;2.70;;;13.00;59.00;;;;;;6064943;23;20387;-73
2023/03/12 09:25:46;;;;;;;3.63;2.27;;;13.10;59.50;;;;;;6063781;23;20475;-72
2023/03/12 09:28:14;;;;;;;7.93;2.37;;;13.10;59.20;;;;;;6063007;23;20163;-73
2023/03/12 09:30:44;;;;;;;8.10;2.77;;;13.20;59.40;;;;;;6061366;23;20257;-74
2023/03/12 09:33:13;;;;;;;3.03;2.10;;;13.20;59.10;;;;;;6062736;23;20174;-74
2023/03/12 09:35:42;;;;;;;5.47;3.10;;;13.30;59.40;;;;;;6060672;23;20174;-73
2023/03/12 09:38:13;;;;;;;8.80;3.37;;;13.30;59.50;;;;;;6062087;23;20533;-72
2023/03/12 09:40:47;;;;;;;13.83;3.00;;;13.40;59.40;;;;;;6060844;23;20601;-73
2023/03/12 09:43:22;;;;;;;7.13;3.20;;;13.40;59.10;;;;;;6063632;23;20162;-74
2023/03/12 09:45:51;;;;;;;7.03;3.17;;;13.40;58.90;;;;;;6062087;23;20238;-74
2023/03/12 09:48:37;;;;;;;5.47;3.13;;;13.40;58.30;;;;;;6060431;23;20166;-74
2023/03/12 09:51:14;;;;;;;6.27;2.60;;;13.40;58.40;;;;;;6064955;23;20194;-73
2023/03/12 09:53:48;;;;;;;5.27;3.17;;;13.50;58.50;;;;;;6064597;23;20726;-73
2023/03/12 09:56:20;;;;;;;8.93;4.00;;;13.60;58.50;;;;;;6062113;23;20170;-73
2023/03/12 09:58:53;;;;;;;4.97;2.93;;;13.60;58.60;;;;;;6060693;23;20175;-76
2023/03/12 10:01:36;;;;;;;6.93;3.30;;;13.70;58.40;;;;;;6061011;23;20193;-73
2023/03/12 10:04:23;;;;;;;6.20;3.30;;;13.80;58.60;;;;;;6063305;23;20170;-73
2023/03/12 10:07:00;;;;;;;7.03;3.00;;;13.80;58.60;;;;;;6062215;23;20174;-72
2023/03/12 10:09:55;;;;;;;4.70;2.90;;;13.80;58.20;;;;;;6061621;23;20273;-73
2023/03/12 10:12:32;;;;;;;5.60;3.03;;;13.80;57.60;;;;;;6061704;23;20255;-72
2023/03/12 10:15:24;;;;;;;5.20;3.07;;;13.80;57.60;;;;;;6063233;23;20162;-73
2023/03/12 10:18:05;;;;;;;5.97;2.70;;;13.70;57.60;;;;;;6064348;23;20162;-73
2023/03/12 10:20:52;;;;;;;7.07;2.83;;;13.70;57.90;;;;;;6063300;23;20163;-72
2023/03/12 10:23:32;;;;;;;8.80;2.67;;;13.80;58.00;;;;;;6062417;23;20688;-72
2023/03/12 10:26:06;;;;;;;7.33;3.10;;;13.80;58.20;;;;;;6062822;23;20166;-73
2023/03/12 10:28:41;;;;;;;7.83;3.07;;;13.80;57.90;;;;;;6061643;23;20209;-72
2023/03/12 10:31:18;;;;;;;5.23;3.00;;;13.80;58.00;;;;;;6060826;23;20185;-73
2023/03/12 10:33:51;;;;;;;13.97;3.40;;;13.90;58.20;;;;;;6060912;23;20159;-73
2023/03/12 10:36:22;;;;;;;6.97;2.80;;;14.00;58.10;;;;;;6059763;23;20488;-72
2023/03/12 10:38:51;;;;;;;7.93;2.90;;;13.90;57.80;;;;;;6061222;23;20681;-74
2023/03/12 10:41:21;;;;;;;5.60;2.50;;;14.00;57.90;;;;;;6060829;23;20495;-73
2023/03/12 10:43:53;;;;;;;5.27;2.87;;;14.00;58.10;;;;;;6063344;23;20163;-72
2023/03/12 10:46:46;;;;;;;5.00;3.07;;;14.10;58.40;;;;;;6062037;23;20159;-72
2023/03/12 10:49:32;;;;;;;4.83;2.93;;;14.10;57.80;;;;;;6061230;23;20170;-73
2023/03/12 10:52:05;;;;;;;6.37;3.07;;;14.10;57.80;;;;;;6062172;23;20222;-73
2023/03/12 10:54:36;;;;;;;7.00;2.80;;;14.20;57.80;;;;;;6061381;23;20167;-72
2023/03/12 10:57:05;;;;;;;5.10;2.73;;;14.30;57.80;;;;;;6060927;23;20206;-72
2023/03/12 10:59:37;;;;;;;6.27;2.90;;;14.30;57.70;;;;;;6060590;23;20178;-72
2023/03/12 11:02:30;;;;;;;4.87;2.90;;;14.40;57.60;;;;;;6061262;23;20166;-72
2023/03/12 11:05:00;;;;;;;6.20;2.97;;;14.40;57.40;;;;;;6062136;23;20222;-72
2023/03/12 11:07:32;;;;;;;7.93;2.87;;;14.50;58.20;;;;;;6061483;23;20290;-72
2023/03/12 11:10:19;;;;;;;6.13;2.43;;;14.50;57.10;;;;;;6061964;23;20237;-72
2023/03/12 11:13:00;;;;;;;5.60;2.60;;;14.50;57.20;;;;;;6046406;23;20174;-72
2023/03/12 11:15:37;;;;;;;4.53;2.70;;;14.50;57.20;;;;;;6064042;23;20612;-72
2023/03/12 11:18:24;;;;;;;4.50;2.50;;;14.60;57.20;;;;;;6065147;23;20555;-72
2023/03/12 11:20:55;;;;;;;5.60;2.90;;;14.60;57.00;;;;;;6064101;23;20197;-74
2023/03/12 11:23:27;;;;;;;5.17;2.97;;;14.70;56.90;;;;;;6063538;23;20177;-72
2023/03/12 11:25:59;;;;;;;10.63;3.33;;;14.70;56.50;;;;;;6066148;23;20621;-72
2023/03/12 11:28:36;;;;;;;11.10;3.70;;;14.60;56.20;;;;;;6065262;23;20226;-73
2023/03/12 11:31:10;;;;;;;4.87;2.70;;;14.60;56.30;;;;;;6062522;23;20770;-72
2023/03/12 11:33:38;;;;;;;6.00;3.57;;;14.60;56.60;;;;;;6061245;23;20597;-73
2023/03/12 11:36:29;;;;;;;11.70;2.97;;;14.60;56.80;;;;;;6061528;23;20655;-73
2023/03/12 11:39:07;;;;;;;7.10;3.03;;;14.60;56.90;;;;;;6063632;23;20684;-73
2023/03/12 11:42:00;;;;;;;3.57;2.40;;;14.70;56.70;;;;;;6063311;23;20595;-73
2023/03/12 11:44:38;;;;;;;4.63;2.83;;;14.70;56.60;;;;;;6062141;23;20170;-74
2023/03/12 11:47:23;;;;;;;4.50;2.43;;;14.80;56.80;;;;;;6062249;23;20163;-74
2023/03/12 11:50:15;;;;;;;6.47;2.73;;;14.80;57.00;;;;;;6061254;23;20162;-73
2023/03/12 11:52:55;;;;;;;4.63;2.73;;;14.90;56.50;;;;;;6058248;23;20190;-74
2023/03/12 11:55:36;;;;;;;4.97;3.00;;;14.90;57.10;;;;;;6059369;23;20210;-73
2023/03/12 11:58:24;;;;;;;8.57;2.70;;;15.00;56.50;;;;;;6064615;23;20577;-73
2023/03/12 12:00:57;;;;;;;6.33;2.57;;;15.10;56.50;;;;;;6063198;23;20605;-73
2023/03/12 12:03:55;;;;;;;5.77;2.83;;;15.20;56.20;;;;;;6065423;23;20166;-73
2023/03/12 12:06:31;;;;;;;5.57;2.90;;;15.30;55.60;;;;;;6056137;23;20178;-73
2023/03/12 12:09:13;;;;;;;4.80;2.70;;;15.40;55.70;;;;;;6065759;23;20162;-73
2023/03/12 12:11:53;;;;;;;4.43;2.40;;;15.50;55.10;;;;;;6066833;23;20266;-73
2023/03/12 12:14:34;;;;;;;6.33;3.13;;;15.50;54.70;;;;;;6066644;23;20173;-74
2023/03/12 12:17:13;;;;;;;5.33;2.87;;;15.60;54.90;;;;;;6067403;23;20163;-73
2023/03/12 12:19:59;;;;;;;5.13;2.83;;;15.60;54.90;;;;;;6062930;23;20506;-77
2023/03/12 12:22:38;;;;;;;5.73;2.70;;;15.70;53.90;;;;;;6064104;23;20171;-73
2023/03/12 12:25:25;;;;;;;6.83;2.60;;;15.70;53.00;;;;;;6064639;23;20166;-75
2023/03/12 12:28:13;;;;;;;5.77;3.13;;;15.70;53.00;;;;;;6063278;23;20676;-73
2023/03/12 12:30:54;;;;;;;3.93;2.60;;;15.80;52.90;;;;;;6061652;23;20531;-74
2023/03/12 12:33:39;;;;;;;4.67;2.90;;;15.90;53.10;;;;;;6062867;23;20166;-73
2023/03/12 12:36:09;;;;;;;6.10;3.10;;;16.00;52.80;;;;;;6063770;23;20235;-72
2023/03/12 12:38:44;;;;;;;4.80;2.47;;;16.10;52.40;;;;;;6064981;23;20181;-72
2023/03/12 12:41:16;;;;;;;5.03;2.60;;;16.20;52.50;;;;;;6062929;23;20163;-73
2023/03/12 12:43:49;;;;;;;4.50;2.63;;;16.30;52.90;;;;;;6063998;23;20166;-73
2023/03/12 12:46:19;;;;;;;6.47;2.73;;;16.30;52.80;;;;;;6063290;23;20222;-73
2023/03/12 12:48:52;;;;;;;4.50;2.70;;;16.40;52.30;;;;;;6062515;23;20175;-73
2023/03/12 12:51:24;;;;;;;5.13;2.60;;;16.50;52.40;;;;;;6063477;23;20536;-73
2023/03/12 12:54:01;;;;;;;5.97;2.57;;;16.50;52.10;;;;;;6064511;23;20198;-73
2023/03/12 12:56:33;;;;;;;7.00;2.87;;;16.60;52.20;;;;;;6064837;23;20198;-74
2023/03/12 12:59:30;;;;;;;5.37;2.77;;;16.80;52.60;;;;;;6064344;23;20529;-74
2023/03/12 13:02:01;;;;;;;5.00;3.07;;;17.00;51.90;;;;;;6061454;23;20641;-73
2023/03/12 13:04:33;;;;;;;7.23;3.10;;;17.00;49.40;;;;;;6062818;23;20159;-73
2023/03/12 13:07:04;;;;;;;7.67;3.77;;;17.10;48.90;;;;;;6063387;23;20159;-73
2023/03/12 13:09:40;;;;;;;5.77;3.10;;;17.20;49.40;;;;;;6064601;23;20367;-73
2023/03/12 13:12:16;;;;;;;5.70;2.67;;;17.40;49.90;;;;;;6062019;23;20186;-73